Weather reports worldwide

Advertisment
Tarvisio, Italy (16040): temperature & dewpoint: 26.09.2020 00:00:00 - 02.10.2020 00:00:00 (CEST)Tarvisio, Italy (16040): wind speed: 26.09.2020 00:00:00 - 02.10.2020 00:00:00 (CEST)Tarvisio, Italy (16040): wind direction: 26.09.2020 00:00:00 - 02.10.2020 00:00:00 (CEST)Tarvisio, Italy (16040): visibility: 26.09.2020 00:00:00 - 02.10.2020 00:00:00 (CEST)
Date & Time tt [°C] td [°C] ff [km/h] ff [kn] dd vv [km]
02.10.2020 00:00:00 - - - - - -
01.10.2020 23:00:00 - - - - - -
01.10.2020 22:00:00 - - - - - -
01.10.2020 21:00:00 - - - - - -
01.10.2020 20:00:00 10,0 9,2 5 3 WNW 15
01.10.2020 19:00:00 12,0 10,0 5 3 WNW 10
01.10.2020 18:00:00 14,0 10,0 8 4 W 10
01.10.2020 17:00:00 15,0 10,0 11 6 W 10
01.10.2020 16:00:00 15,0 9,0 13 7 WSW 10
01.10.2020 15:00:00 17,0 10,0 16 9 W 10
01.10.2020 14:00:00 17,0 10,4 15 8 W 10
01.10.2020 13:00:00 16,0 10,0 16 9 N 10
01.10.2020 12:00:00 15,0 10,0 18 10 W 10
01.10.2020 11:00:00 14,0 9,7 18 10 W 10
01.10.2020 10:00:00 - - - - - -
01.10.2020 09:00:00 9,0 7,0 5 3 W 10
01.10.2020 08:00:00 6,0 4,8 4 2 W 10
01.10.2020 07:00:00 - - - - - -
01.10.2020 06:00:00 - - - - - -
01.10.2020 05:00:00 - - - - - -
01.10.2020 04:00:00 - - - - - -
01.10.2020 03:00:00 - - - - - -
01.10.2020 02:00:00 - - - - - -
01.10.2020 01:00:00 - - - - - -
01.10.2020 00:00:00 - - - - - -
30.09.2020 23:00:00 - - - - - -
30.09.2020 22:00:00 - - - - - -
30.09.2020 21:00:00 - - - - - -
30.09.2020 20:00:00 10,0 9,1 2 1 WSW 15
30.09.2020 19:00:00 12,0 10,0 2 1 W 10
30.09.2020 18:00:00 15,0 10,0 4 2 WNW 10
30.09.2020 17:00:00 16,6 8,1 9 5 S 15
30.09.2020 16:00:00 18,0 9,0 4 2 W 10
30.09.2020 15:00:00 17,0 8,0 4 2 SSE 10
30.09.2020 14:00:00 17,0 9,2 4 2 SSE 15
30.09.2020 13:00:00 14,0 9,0 8 4 SSE 10
30.09.2020 12:00:00 13,0 9,0 4 2 SE 10
30.09.2020 11:00:00 11,2 7,9 4 2 SSE 15
30.09.2020 10:00:00 8,0 6,0 0 0 N 10
30.09.2020 09:00:00 5,0 4,0 0 0 N 10
30.09.2020 08:00:00 2,6 1,6 0 0 N 15
30.09.2020 07:00:00 - - - - - -
30.09.2020 06:00:00 - - - - - -
30.09.2020 05:00:00 - - - - - -
30.09.2020 04:00:00 - - - - - -
30.09.2020 03:00:00 - - - - - -
30.09.2020 02:00:00 - - - - - -
30.09.2020 01:00:00 - - - - - -
30.09.2020 00:00:00 - - - - - -
29.09.2020 23:00:00 - - - - - -
29.09.2020 22:00:00 - - - - - -
29.09.2020 21:00:00 - - - - - -
29.09.2020 20:00:00 8,4 7,8 0 0 N 15
29.09.2020 19:00:00 10,0 8,0 4 2 E 10
29.09.2020 18:00:00 13,0 9,0 0 0 N 10
29.09.2020 17:00:00 15,0 7,8 0 0 N 15
29.09.2020 16:00:00 16,0 8,0 0 0 N 10
29.09.2020 15:00:00 17,0 7,0 5 3 ESE 10
29.09.2020 14:00:00 16,0 7,7 5 3 NW 15
29.09.2020 13:00:00 13,0 7,0 5 3 SSE 10
29.09.2020 12:00:00 11,0 8,0 5 3 SE 10
29.09.2020 11:00:00 8,2 6,2 4 2 SW 15
29.09.2020 10:00:00 7,0 5,0 4 2 SSE 10
29.09.2020 09:00:00 5,0 4,0 0 0 N 10
29.09.2020 08:00:00 4,0 2,8 0 0 N 15
29.09.2020 07:00:00 - - - - - -
29.09.2020 06:00:00 - - - - - -
29.09.2020 05:00:00 - - - - - -
29.09.2020 04:00:00 - - - - - -
29.09.2020 03:00:00 - - - - - -
29.09.2020 02:00:00 - - - - - -
29.09.2020 01:00:00 - - - - - -
29.09.2020 00:00:00 - - - - - -
28.09.2020 23:00:00 - - - - - -
28.09.2020 22:00:00 - - - - - -
28.09.2020 21:00:00 - - - - - -
28.09.2020 20:00:00 6,0 5,1 0 0 N 5
28.09.2020 19:00:00 6,0 6,0 0 0 N 5
28.09.2020 18:00:00 7,0 6,0 0 0 N 5
28.09.2020 17:00:00 7,0 6,0 0 0 N 5
28.09.2020 16:00:00 6,0 6,0 0 0 N 5
28.09.2020 15:00:00 6,0 5,0 0 0 N 4,0
28.09.2020 14:00:00 5,4 3,9 0 0 N 5
28.09.2020 13:00:00 5,0 4,0 0 0 N 5
28.09.2020 12:00:00 5,0 4,0 0 0 N 4,0
28.09.2020 11:00:00 4,8 3,8 0 0 N 4,0
28.09.2020 10:00:00 5,0 3,0 0 0 N 3,0
28.09.2020 09:00:00 4,0 3,0 0 0 N 5
28.09.2020 08:00:00 3,8 2,9 0 0 N 3,0
28.09.2020 07:00:00 - - - - - -
28.09.2020 06:00:00 - - - - - -
28.09.2020 05:00:00 - - - - - -
28.09.2020 04:00:00 - - - - - -
28.09.2020 03:00:00 - - - - - -
28.09.2020 02:00:00 - - - - - -
28.09.2020 01:00:00 - - - - - -
28.09.2020 00:00:00 - - - - - -
27.09.2020 23:00:00 - - - - - -
27.09.2020 22:00:00 - - - - - -
27.09.2020 21:00:00 - - - - - -
27.09.2020 20:00:00 7,4 6,0 0 0 N 10
27.09.2020 19:00:00 8,0 6,0 0 0 N 10
27.09.2020 18:00:00 9,0 6,0 0 0 N 10
27.09.2020 17:00:00 9,4 6,3 4 2 SSE 15
27.09.2020 16:00:00 9,0 6,0 0 0 N 10
27.09.2020 15:00:00 10,0 5,0 9 5 E 10
27.09.2020 14:00:00 8,2 5,3 5 3 S 15
27.09.2020 13:00:00 9,0 6,0 18 10 E 10
27.09.2020 12:00:00 7,0 5,0 18 10 E 10
27.09.2020 11:00:00 6,2 3,9 9 5 SSE 15
27.09.2020 10:00:00 4,0 2,0 9 5 SSE 0,8
27.09.2020 09:00:00 3,0 2,0 9 5 SSE 0,2
27.09.2020 08:00:00 2,0 0,7 0 0 N 1,0
27.09.2020 07:00:00 - - - - - -
27.09.2020 06:00:00 - - - - - -
27.09.2020 05:00:00 - - - - - -
27.09.2020 04:00:00 - - - - - -
27.09.2020 03:00:00 - - - - - -
27.09.2020 02:00:00 - - - - - -
27.09.2020 01:00:00 - - - - - -
27.09.2020 00:00:00 - - - - - -
26.09.2020 23:00:00 - - - - - -
26.09.2020 22:00:00 - - - - - -
26.09.2020 21:00:00 - - - - - -
26.09.2020 20:00:00 4,4 3,7 0 0 N 12
26.09.2020 19:00:00 6,0 5,0 5 3 E 8
26.09.2020 18:00:00 8,0 6,0 4 2 W 8
26.09.2020 17:00:00 10,0 6,7 0 0 N 10
26.09.2020 16:00:00 11,0 7,0 4 2 SE 10
26.09.2020 15:00:00 10,0 6,0 0 0 N 10
26.09.2020 14:00:00 9,2 4,4 0 0 N 10
26.09.2020 13:00:00 8,0 5,0 2 1 SE 10
26.09.2020 12:00:00 7,0 5,0 2 1 ESE 10
26.09.2020 11:00:00 6,0 4,5 2 1 S 10
26.09.2020 10:00:00 5,0 4,0 2 1 S 10
26.09.2020 09:00:00 4,0 3,0 0 0 N 10
26.09.2020 08:00:00 4,0 3,1 0 0 N 10
26.09.2020 07:00:00 - - - - - -
26.09.2020 06:00:00 - - - - - -
26.09.2020 05:00:00 - - - - - -
26.09.2020 04:00:00 - - - - - -
26.09.2020 03:00:00 - - - - - -
26.09.2020 02:00:00 - - - - - -
26.09.2020 01:00:00 - - - - - -
26.09.2020 00:00:00 - - - - - -

tt = temperature
td = dewpoint
ff = wind speed
dd = wind direction
vv = visibility

Next stations